Time;durP1;ratioP1;P1;durP2;ratioP2;P2;SDS_P1;SDS_P2;PMS_P1;PMS_P2;Temp;Humidity;BMP_temperature;BMP_pressure;BME280_temperature;BME280_humidity;BME280_pressure;Samples;Min_cycle;Max_cycle;Signal;HPM_P1;HPM_P2
2021/09/24 00:00:11;;;;;;;0.10;0.10;;;;;;;;;;5075778;28;20044;-88
2021/09/24 00:02:37;;;;;;;0.10;0.10;;;;;;;;;;5076065;28;20483;-88
2021/09/24 00:05:03;;;;;;;0.10;0.10;;;;;;;;;;5075605;28;20028;-89
2021/09/24 00:07:29;;;;;;;0.10;0.10;;;;;;;;;;5092337;28;20043;-87
2021/09/24 00:09:55;;;;;;;0.10;0.10;;;;;;;;;;5075738;28;20044;-88
2021/09/24 00:12:21;;;;;;;0.10;0.10;;;;;;;;;;5075578;28;20475;-88
2021/09/24 00:14:47;;;;;;;0.10;0.10;;;;;;;;;;5075537;28;20488;-88
2021/09/24 00:17:13;;;;;;;0.10;0.10;;;;;;;;;;5075489;28;20526;-88
2021/09/24 00:19:39;;;;;;;0.10;0.10;;;;;;;;;;5075463;28;20432;-88
2021/09/24 00:22:05;;;;;;;0.10;0.10;;;;;;;;;;5075387;28;20067;-89
2021/09/24 00:24:31;;;;;;;0.10;0.10;;;;;;;;;;5075215;28;20046;-88
2021/09/24 00:26:57;;;;;;;0.10;0.10;;;;;;;;;;5075480;28;20044;-88
2021/09/24 00:29:23;;;;;;;0.10;0.10;;;;;;;;;;5075052;28;20176;-88
2021/09/24 00:31:49;;;;;;;0.10;0.10;;;;;;;;;;5075088;28;20040;-89
2021/09/24 00:34:15;;;;;;;0.10;0.10;;;;;;;;;;5075161;28;20534;-89
2021/09/24 00:36:41;;;;;;;0.10;0.10;;;;;;;;;;5075039;28;20055;-88
2021/09/24 00:39:07;;;;;;;0.10;0.10;;;;;;;;;;5091863;28;20086;-89
2021/09/24 00:41:33;;;;;;;0.10;0.10;;;;;;;;;;5091241;28;20036;-90
2021/09/24 00:43:59;;;;;;;0.10;0.10;;;;;;;;;;5091727;28;20043;-88
2021/09/24 00:46:25;;;;;;;0.10;0.10;;;;;;;;;;5091948;28;20047;-89
2021/09/24 00:48:51;;;;;;;0.10;0.10;;;;;;;;;;5091971;28;20043;-89
2021/09/24 00:51:17;;;;;;;0.10;0.10;;;;;;;;;;5074714;28;20032;-88
2021/09/24 00:53:43;;;;;;;0.10;0.10;;;;;;;;;;5074788;28;20117;-88
2021/09/24 00:56:09;;;;;;;0.10;0.10;;;;;;;;;;5091799;28;20040;-87
2021/09/24 00:58:35;;;;;;;0.10;0.10;;;;;;;;;;5074435;28;20119;-88
2021/09/24 01:01:01;;;;;;;0.10;0.10;;;;;;;;;;5091586;28;20123;-88
2021/09/24 01:03:27;;;;;;;0.10;0.10;;;;;;;;;;5074651;28;20137;-88
2021/09/24 01:05:53;;;;;;;0.20;0.20;;;;;;;;;;5074600;28;20044;-87
2021/09/24 01:08:19;;;;;;;0.10;0.10;;;;;;;;;;5091264;28;20086;-88
2021/09/24 01:10:45;;;;;;;0.10;0.10;;;;;;;;;;5074644;28;20071;-88
2021/09/24 01:13:11;;;;;;;0.10;0.10;;;;;;;;;;5074605;28;20052;-89
2021/09/24 01:15:37;;;;;;;0.10;0.10;;;;;;;;;;5074468;28;20044;-89
2021/09/24 01:18:03;;;;;;;0.10;0.10;;;;;;;;;;5074453;28;20062;-88
2021/09/24 01:20:29;;;;;;;0.10;0.10;;;;;;;;;;5074478;28;20503;-88
2021/09/24 01:22:55;;;;;;;0.10;0.10;;;;;;;;;;5074381;28;20117;-93
2021/09/24 01:25:21;;;;;;;0.10;0.10;;;;;;;;;;5074911;28;20040;-88
2021/09/24 01:27:47;;;;;;;0.10;0.10;;;;;;;;;;5073963;28;20047;-88
2021/09/24 01:30:15;;;;;;;0.10;0.10;;;;;;;;;;5073889;28;20051;-88
2021/09/24 01:32:41;;;;;;;0.10;0.10;;;;;;;;;;5074112;28;20048;-88
2021/09/24 01:35:07;;;;;;;0.10;0.10;;;;;;;;;;5090536;28;20040;-88
2021/09/24 01:37:33;;;;;;;0.10;0.10;;;;;;;;;;5073972;28;20062;-88
2021/09/24 01:40:00;;;;;;;0.10;0.10;;;;;;;;;;5090645;28;20036;-87
2021/09/24 01:42:26;;;;;;;0.68;0.68;;;;;;;;;;5074382;28;20437;-87
2021/09/24 01:44:52;;;;;;;0.10;0.10;;;;;;;;;;5073828;28;20098;-89
2021/09/24 01:47:18;;;;;;;0.10;0.10;;;;;;;;;;5076137;28;20480;-89
2021/09/24 01:49:44;;;;;;;0.10;0.10;;;;;;;;;;5074468;28;20378;-88
2021/09/24 01:52:10;;;;;;;0.10;0.10;;;;;;;;;;5074328;28;20375;-88
2021/09/24 01:54:36;;;;;;;0.10;0.10;;;;;;;;;;5073444;28;20046;-88
2021/09/24 01:57:02;;;;;;;0.10;0.10;;;;;;;;;;5073956;28;20047;-89
2021/09/24 01:59:28;;;;;;;0.10;0.10;;;;;;;;;;5074321;28;20116;-88
2021/09/24 02:01:54;;;;;;;0.10;0.10;;;;;;;;;;5073745;28;20044;-88
2021/09/24 02:04:20;;;;;;;0.10;0.10;;;;;;;;;;5073865;28;20064;-88
2021/09/24 02:06:46;;;;;;;0.10;0.10;;;;;;;;;;5090513;28;20032;-88
2021/09/24 02:09:12;;;;;;;0.10;0.10;;;;;;;;;;5090520;28;20479;-88
2021/09/24 02:11:38;;;;;;;0.10;0.10;;;;;;;;;;5091039;28;20043;-90
2021/09/24 02:14:04;;;;;;;0.10;0.10;;;;;;;;;;5074193;28;20367;-89
2021/09/24 02:16:30;;;;;;;0.10;0.10;;;;;;;;;;5090834;28;20123;-90
2021/09/24 02:18:56;;;;;;;0.10;0.10;;;;;;;;;;5073844;28;20103;-89
2021/09/24 02:21:22;;;;;;;0.10;0.10;;;;;;;;;;5073745;28;20080;-88
2021/09/24 02:23:48;;;;;;;0.10;0.10;;;;;;;;;;5073552;28;20088;-89
2021/09/24 02:26:14;;;;;;;0.10;0.10;;;;;;;;;;5073727;28;20387;-88
2021/09/24 02:28:42;;;;;;;0.20;0.20;;;;;;;;;;5090575;28;20188;-89
2021/09/24 02:31:09;;;;;;;0.10;0.10;;;;;;;;;;5090289;28;20048;-88
2021/09/24 02:33:38;;;;;;;0.10;0.10;;;;;;;;;;5073884;28;20047;-88
2021/09/24 02:36:05;;;;;;;0.10;0.10;;;;;;;;;;5073391;28;20052;-88
2021/09/24 02:38:31;;;;;;;0.10;0.10;;;;;;;;;;5073459;28;20097;-88
2021/09/24 02:40:57;;;;;;;0.10;0.10;;;;;;;;;;5073338;28;20480;-88
2021/09/24 02:43:23;;;;;;;0.10;0.10;;;;;;;;;;5073751;28;20356;-87
2021/09/24 02:45:48;;;;;;;0.10;0.10;;;;;;;;;;5090515;28;20036;-88
2021/09/24 02:48:14;;;;;;;0.10;0.10;;;;;;;;;;5090639;28;20036;-88
2021/09/24 02:50:40;;;;;;;0.10;0.10;;;;;;;;;;5073554;28;20043;-87
2021/09/24 02:53:06;;;;;;;0.10;0.10;;;;;;;;;;5073261;28;20042;-88
2021/09/24 02:55:32;;;;;;;0.10;0.10;;;;;;;;;;5090081;28;20402;-88
2021/09/24 02:57:58;;;;;;;0.10;0.10;;;;;;;;;;5073541;28;20135;-88
2021/09/24 03:00:26;;;;;;;0.10;0.10;;;;;;;;;;5073159;28;20127;-88
2021/09/24 03:02:52;;;;;;;0.10;0.10;;;;;;;;;;5073171;28;20046;-88
2021/09/24 03:05:18;;;;;;;0.10;0.10;;;;;;;;;;5091013;28;20036;-87
2021/09/24 03:07:44;;;;;;;0.10;0.10;;;;;;;;;;5076619;28;20032;-87
2021/09/24 03:10:10;;;;;;;0.10;0.10;;;;;;;;;;5093851;28;20048;-88
2021/09/24 03:12:36;;;;;;;0.20;0.20;;;;;;;;;;5076951;28;20040;-87
2021/09/24 03:15:03;;;;;;;0.10;0.10;;;;;;;;;;5076529;28;20059;-88
2021/09/24 03:17:29;;;;;;;0.10;0.10;;;;;;;;;;5076743;28;20040;-88
2021/09/24 03:19:54;;;;;;;0.10;0.10;;;;;;;;;;5076573;28;20040;-88
2021/09/24 03:22:20;;;;;;;0.10;0.10;;;;;;;;;;5076566;28;20040;-88
2021/09/24 03:24:46;;;;;;;0.10;0.10;;;;;;;;;;5076386;28;20032;-88
2021/09/24 03:27:13;;;;;;;0.10;0.10;;;;;;;;;;5076453;28;20523;-87
2021/09/24 03:29:39;;;;;;;0.10;0.10;;;;;;;;;;5076360;28;20044;-88
2021/09/24 03:32:05;;;;;;;0.10;0.10;;;;;;;;;;5076400;28;20040;-88
2021/09/24 03:34:31;;;;;;;0.10;0.10;;;;;;;;;;5076367;28;20491;-89
2021/09/24 03:36:57;;;;;;;0.10;0.10;;;;;;;;;;5075920;28;20066;-89
2021/09/24 03:39:23;;;;;;;0.10;0.10;;;;;;;;;;5076482;28;20075;-89
2021/09/24 03:41:49;;;;;;;0.10;0.10;;;;;;;;;;5075972;28;20036;-88
2021/09/24 03:44:15;;;;;;;0.10;0.10;;;;;;;;;;5076158;28;20196;-88
2021/09/24 03:46:41;;;;;;;0.10;0.10;;;;;;;;;;5076300;28;20389;-88
2021/09/24 03:49:07;;;;;;;0.10;0.10;;;;;;;;;;5076318;28;20036;-88
2021/09/24 03:51:33;;;;;;;0.10;0.10;;;;;;;;;;5092760;28;20051;-87
2021/09/24 03:53:59;;;;;;;0.10;0.10;;;;;;;;;;5075936;28;20044;-88
2021/09/24 03:56:25;;;;;;;0.10;0.10;;;;;;;;;;5075797;28;20219;-88
2021/09/24 03:58:51;;;;;;;0.10;0.10;;;;;;;;;;5075850;28;20349;-88
2021/09/24 04:01:17;;;;;;;0.10;0.10;;;;;;;;;;5075623;28;20437;-88
2021/09/24 04:03:43;;;;;;;0.10;0.10;;;;;;;;;;5075854;28;20075;-87
2021/09/24 04:06:10;;;;;;;0.10;0.10;;;;;;;;;;5075710;28;20071;-88
2021/09/24 04:08:36;;;;;;;0.10;0.10;;;;;;;;;;5092737;28;20540;-88
2021/09/24 04:11:02;;;;;;;0.10;0.10;;;;;;;;;;5092338;28;20097;-88
2021/09/24 04:13:28;;;;;;;0.10;0.10;;;;;;;;;;5075470;28;20040;-88
2021/09/24 04:15:54;;;;;;;0.10;0.10;;;;;;;;;;5091643;28;20039;-88
2021/09/24 04:18:20;;;;;;;0.10;0.10;;;;;;;;;;5075648;28;20047;-88
2021/09/24 04:20:47;;;;;;;0.10;0.10;;;;;;;;;;5091971;28;20044;-88
2021/09/24 04:23:13;;;;;;;0.10;0.10;;;;;;;;;;5075294;28;20036;-89
2021/09/24 04:25:39;;;;;;;0.10;0.10;;;;;;;;;;5075096;28;20082;-88
2021/09/24 04:28:05;;;;;;;0.20;0.20;;;;;;;;;;5074905;28;20071;-87
2021/09/24 04:30:31;;;;;;;0.10;0.10;;;;;;;;;;5074857;28;20044;-86
2021/09/24 04:32:57;;;;;;;0.10;0.10;;;;;;;;;;5074860;28;20476;-87
2021/09/24 04:35:24;;;;;;;0.10;0.10;;;;;;;;;;5074685;28;20050;-87
2021/09/24 04:37:51;;;;;;;0.10;0.10;;;;;;;;;;5074740;28;20067;-87
2021/09/24 04:40:16;;;;;;;0.10;0.10;;;;;;;;;;5074507;28;20051;-87
2021/09/24 04:42:42;;;;;;;0.10;0.10;;;;;;;;;;5075231;28;20036;-88
2021/09/24 04:45:09;;;;;;;0.10;0.10;;;;;;;;;;5074583;28;20494;-88
2021/09/24 04:47:35;;;;;;;0.10;0.10;;;;;;;;;;5074819;28;20047;-88
2021/09/24 04:50:01;;;;;;;0.10;0.10;;;;;;;;;;5074847;28;20053;-88
2021/09/24 04:52:27;;;;;;;0.10;0.10;;;;;;;;;;5074626;28;20044;-88
2021/09/24 04:54:53;;;;;;;0.10;0.10;;;;;;;;;;5074904;28;20040;-87
2021/09/24 04:57:19;;;;;;;0.10;0.10;;;;;;;;;;5074510;28;20198;-88
2021/09/24 04:59:45;;;;;;;0.10;0.10;;;;;;;;;;5074638;28;20582;-88
2021/09/24 05:02:13;;;;;;;0.10;0.10;;;;;;;;;;5074548;28;20043;-88
2021/09/24 05:04:39;;;;;;;0.10;0.10;;;;;;;;;;5074718;28;20253;-88
2021/09/24 05:07:05;;;;;;;0.10;0.10;;;;;;;;;;5074491;28;20479;-88
2021/09/24 05:09:31;;;;;;;0.10;0.10;;;;;;;;;;5074370;28;20364;-88
2021/09/24 05:11:57;;;;;;;0.10;0.10;;;;;;;;;;5074186;28;20411;-88
2021/09/24 05:14:24;;;;;;;0.10;0.10;;;;;;;;;;5073957;28;20044;-88
2021/09/24 05:16:50;;;;;;;0.10;0.10;;;;;;;;;;5074344;28;20102;-88
2021/09/24 05:19:16;;;;;;;0.10;0.10;;;;;;;;;;5090984;28;20505;-88
2021/09/24 05:21:42;;;;;;;0.10;0.10;;;;;;;;;;5074150;28;20383;-88
2021/09/24 05:24:08;;;;;;;0.10;0.10;;;;;;;;;;5074063;28;20116;-88
2021/09/24 05:26:34;;;;;;;0.10;0.10;;;;;;;;;;5074172;28;20036;-88
2021/09/24 05:29:00;;;;;;;0.10;0.10;;;;;;;;;;5073346;28;20180;-88
2021/09/24 05:31:26;;;;;;;0.10;0.10;;;;;;;;;;5074019;28;20161;-88
2021/09/24 05:33:52;;;;;;;0.10;0.10;;;;;;;;;;5073920;28;20040;-87
2021/09/24 05:36:18;;;;;;;0.10;0.10;;;;;;;;;;5074224;28;20081;-88
2021/09/24 05:38:44;;;;;;;0.10;0.10;;;;;;;;;;5074246;28;20508;-86
2021/09/24 05:41:10;;;;;;;0.10;0.10;;;;;;;;;;5073661;28;20074;-86
2021/09/24 05:43:36;;;;;;;0.20;0.20;;;;;;;;;;5073895;28;20032;-86
2021/09/24 05:46:02;;;;;;;0.10;0.10;;;;;;;;;;5073910;28;20036;-86
2021/09/24 05:48:28;;;;;;;0.10;0.10;;;;;;;;;;5074045;28;20044;-87
2021/09/24 05:50:55;;;;;;;0.10;0.10;;;;;;;;;;5073955;28;20571;-88
2021/09/24 05:53:21;;;;;;;0.10;0.10;;;;;;;;;;5073840;28;20499;-87
2021/09/24 05:55:47;;;;;;;0.17;0.17;;;;;;;;;;5074059;28;20044;-87
2021/09/24 05:58:12;;;;;;;0.10;0.10;;;;;;;;;;5073882;28;20611;-86
2021/09/24 06:00:38;;;;;;;0.10;0.10;;;;;;;;;;5091643;28;20040;-87
2021/09/24 06:03:04;;;;;;;0.10;0.10;;;;;;;;;;5073764;28;20078;-87
2021/09/24 06:05:30;;;;;;;0.20;0.20;;;;;;;;;;5074126;28;20094;-88
2021/09/24 06:07:56;;;;;;;0.10;0.10;;;;;;;;;;5073966;28;20493;-93
2021/09/24 06:10:24;;;;;;;0.10;0.10;;;;;;;;;;5074289;28;20501;-90
2021/09/24 06:12:50;;;;;;;1.05;1.05;;;;;;;;;;5074392;28;20512;-89
2021/09/24 06:15:20;;;;;;;0.10;0.10;;;;;;;;;;5090713;28;20103;-89
2021/09/24 06:17:46;;;;;;;0.10;0.10;;;;;;;;;;5074183;28;20098;-89
2021/09/24 06:20:13;;;;;;;0.10;0.10;;;;;;;;;;5090806;28;20126;-91
2021/09/24 06:22:39;;;;;;;0.10;0.10;;;;;;;;;;5074224;28;20036;-89
2021/09/24 06:25:05;;;;;;;0.10;0.10;;;;;;;;;;5073852;28;20032;-87
2021/09/24 06:27:31;;;;;;;0.10;0.10;;;;;;;;;;5074096;28;20144;-88
2021/09/24 06:29:58;;;;;;;0.10;0.10;;;;;;;;;;5090625;28;20504;-88
2021/09/24 06:32:24;;;;;;;0.10;0.10;;;;;;;;;;5073713;28;20098;-88
2021/09/24 06:34:50;;;;;;;0.10;0.10;;;;;;;;;;5073822;28;20047;-88
2021/09/24 06:37:17;;;;;;;0.10;0.10;;;;;;;;;;5073521;28;20109;-88
2021/09/24 06:39:43;;;;;;;0.10;0.10;;;;;;;;;;5075169;28;20040;-88
2021/09/24 06:42:09;;;;;;;0.10;0.10;;;;;;;;;;5077228;28;20527;-87
2021/09/24 06:44:35;;;;;;;0.10;0.10;;;;;;;;;;5077349;28;20076;-86
2021/09/24 06:47:01;;;;;;;0.10;0.10;;;;;;;;;;5077122;28;20084;-87
2021/09/24 06:49:27;;;;;;;0.10;0.10;;;;;;;;;;5077076;28;20115;-87
2021/09/24 06:51:53;;;;;;;0.10;0.10;;;;;;;;;;5076951;28;20039;-88
2021/09/24 06:54:19;;;;;;;0.10;0.10;;;;;;;;;;5077016;28;20399;-88
2021/09/24 06:56:45;;;;;;;0.13;0.13;;;;;;;;;;5076810;28;20043;-87
2021/09/24 06:59:11;;;;;;;0.10;0.10;;;;;;;;;;5076000;28;20052;-88
2021/09/24 07:01:37;;;;;;;0.10;0.10;;;;;;;;;;5082946;28;20474;-87
2021/09/24 07:04:03;;;;;;;0.10;0.10;;;;;;;;;;5096988;28;20065;-87
2021/09/24 07:06:29;;;;;;;0.10;0.10;;;;;;;;;;5096981;28;20035;-88
2021/09/24 07:08:55;;;;;;;0.10;0.10;;;;;;;;;;5097027;28;20040;-88
2021/09/24 07:11:22;;;;;;;0.10;0.10;;;;;;;;;;5097134;28;20055;-88
2021/09/24 07:13:48;;;;;;;0.10;0.10;;;;;;;;;;5097362;28;20054;-88
2021/09/24 07:16:14;;;;;;;0.10;0.10;;;;;;;;;;5113842;28;20386;-88
2021/09/24 07:18:40;;;;;;;0.10;0.10;;;;;;;;;;5097033;28;20028;-88
2021/09/24 07:21:06;;;;;;;0.10;0.10;;;;;;;;;;5096770;28;20097;-87
2021/09/24 07:23:32;;;;;;;0.10;0.10;;;;;;;;;;5096959;28;20039;-89
2021/09/24 07:25:58;;;;;;;0.10;0.10;;;;;;;;;;5096626;28;20056;-91
2021/09/24 07:28:24;;;;;;;0.10;0.10;;;;;;;;;;5097171;28;20035;-88
2021/09/24 07:30:50;;;;;;;0.10;0.10;;;;;;;;;;5114014;28;20135;-89
2021/09/24 07:33:16;;;;;;;0.10;0.10;;;;;;;;;;5079816;28;20036;-87
2021/09/24 07:35:42;;;;;;;0.10;0.10;;;;;;;;;;5112825;28;20044;-86
2021/09/24 07:38:08;;;;;;;0.10;0.10;;;;;;;;;;5079632;28;20377;-88
2021/09/24 07:40:34;;;;;;;0.10;0.10;;;;;;;;;;5113977;28;20082;-92
2021/09/24 07:43:00;;;;;;;0.10;0.10;;;;;;;;;;5079918;28;20111;-90
2021/09/24 07:45:26;;;;;;;0.10;0.10;;;;;;;;;;5096836;28;20035;-90
2021/09/24 07:47:52;;;;;;;0.10;0.10;;;;;;;;;;5097106;28;20402;-90
2021/09/24 07:50:18;;;;;;;0.10;0.10;;;;;;;;;;5097053;28;20075;-90
2021/09/24 07:52:44;;;;;;;0.10;0.10;;;;;;;;;;5095854;28;20071;-87
2021/09/24 07:55:11;;;;;;;0.10;0.10;;;;;;;;;;5096095;28;20073;-87
2021/09/24 07:57:37;;;;;;;0.10;0.10;;;;;;;;;;5079512;28;20084;-87
2021/09/24 08:00:04;;;;;;;0.10;0.10;;;;;;;;;;5096030;28;20039;-90
2021/09/24 08:02:30;;;;;;;0.10;0.10;;;;;;;;;;5096023;28;20067;-87
2021/09/24 08:04:57;;;;;;;0.10;0.10;;;;;;;;;;5096317;28;20040;-88
2021/09/24 08:07:23;;;;;;;0.20;0.20;;;;;;;;;;5096013;28;20035;-88
2021/09/24 08:09:49;;;;;;;0.10;0.10;;;;;;;;;;5095729;28;20042;-87
2021/09/24 08:12:15;;;;;;;0.10;0.10;;;;;;;;;;5096046;28;20036;-87
2021/09/24 08:14:41;;;;;;;0.10;0.10;;;;;;;;;;5095894;28;20492;-87
2021/09/24 08:17:07;;;;;;;0.10;0.10;;;;;;;;;;5097306;28;20494;-92
2021/09/24 08:19:33;;;;;;;0.10;0.10;;;;;;;;;;5079031;28;20072;-87
2021/09/24 08:21:59;;;;;;;0.10;0.10;;;;;;;;;;5112399;28;20035;-87
2021/09/24 08:24:25;;;;;;;0.10;0.10;;;;;;;;;;5095637;28;20057;-87
2021/09/24 08:26:51;;;;;;;0.10;0.10;;;;;;;;;;5095548;28;20046;-90
2021/09/24 08:29:17;;;;;;;0.10;0.10;;;;;;;;;;5112307;28;20122;-88
2021/09/24 08:31:43;;;;;;;0.10;0.10;;;;;;;;;;5078551;28;20126;-92
2021/09/24 08:34:09;;;;;;;0.10;0.10;;;;;;;;;;5110223;28;20143;-86
2021/09/24 08:36:35;;;;;;;0.10;0.10;;;;;;;;;;5081177;28;20063;-86
2021/09/24 08:39:01;;;;;;;0.10;0.10;;;;;;;;;;5109536;28;20054;-87
2021/09/24 08:41:29;;;;;;;0.10;0.10;;;;;;;;;;5095287;28;20039;-88
2021/09/24 08:43:55;;;;;;;0.10;0.10;;;;;;;;;;5096179;28;20047;-91
2021/09/24 08:46:21;;;;;;;0.10;0.10;;;;;;;;;;5075197;28;20055;-90
2021/09/24 08:48:48;;;;;;;0.10;0.10;;;;;;;;;;5058684;28;20039;-89
2021/09/24 08:51:14;;;;;;;0.10;0.10;;;;;;;;;;5076916;28;20127;-89
2021/09/24 08:53:39;;;;;;;0.10;0.10;;;;;;;;;;5075356;28;20155;-90
2021/09/24 08:56:05;;;;;;;0.10;0.10;;;;;;;;;;5064465;28;20039;-91
2021/09/24 08:58:31;;;;;;;0.10;0.10;;;;;;;;;;5092840;28;20130;-89
2021/09/24 09:00:58;;;;;;;0.10;0.10;;;;;;;;;;5095166;28;20119;-90
2021/09/24 09:03:24;;;;;;;0.10;0.10;;;;;;;;;;5091380;28;20039;-88
2021/09/24 09:05:53;;;;;;;0.10;0.10;;;;;;;;;;5074502;28;20040;-87
2021/09/24 09:08:20;;;;;;;0.10;0.10;;;;;;;;;;5074463;28;20028;-88
2021/09/24 09:11:00;;;;;;;0.20;0.20;;;;;;;;;;5075809;28;20044;-88
2021/09/24 09:13:27;;;;;;;0.10;0.10;;;;;;;;;;5110672;28;20100;-88
2021/09/24 09:16:13;;;;;;;0.10;0.10;;;;;;;;;;5088688;28;20032;-86
2021/09/24 09:18:39;;;;;;;0.10;0.10;;;;;;;;;;5086966;28;20044;-86
2021/09/24 09:21:06;;;;;;;0.20;0.20;;;;;;;;;;5089995;28;20048;-86
2021/09/24 09:23:33;;;;;;;0.10;0.10;;;;;;;;;;5111596;28;20036;-86
2021/09/24 09:26:00;;;;;;;0.10;0.10;;;;;;;;;;5087355;28;20036;-86
2021/09/24 09:28:32;;;;;;;0.10;0.10;;;;;;;;;;5085174;28;20070;-84
2021/09/24 09:30:58;;;;;;;0.10;0.10;;;;;;;;;;5111798;28;20463;-87
2021/09/24 09:33:25;;;;;;;0.10;0.10;;;;;;;;;;5094646;28;20040;-86
2021/09/24 09:35:55;;;;;;;0.10;0.10;;;;;;;;;;5111150;28;20145;-88
2021/09/24 09:38:34;;;;;;;0.10;0.10;;;;;;;;;;5095010;28;20452;-87
2021/09/24 09:41:01;;;;;;;0.10;0.10;;;;;;;;;;5111088;28;20079;-86
2021/09/24 09:43:31;;;;;;;0.15;0.15;;;;;;;;;;5094368;28;20036;-88
2021/09/24 09:45:57;;;;;;;0.20;0.20;;;;;;;;;;5094743;28;20478;-90
2021/09/24 09:48:23;;;;;;;0.10;0.10;;;;;;;;;;5093675;28;20035;-88
2021/09/24 09:50:49;;;;;;;0.17;0.17;;;;;;;;;;5094059;28;20043;-88
2021/09/24 09:53:15;;;;;;;0.10;0.10;;;;;;;;;;5110904;28;20043;-88
2021/09/24 09:56:12;;;;;;;0.10;0.10;;;;;;;;;;5093791;28;20509;-88
2021/09/24 09:58:41;;;;;;;0.10;0.10;;;;;;;;;;5090776;28;20177;-89
2021/09/24 10:01:08;;;;;;;0.20;0.20;;;;;;;;;;5093819;28;20123;-88
2021/09/24 10:03:37;;;;;;;0.10;0.10;;;;;;;;;;5110691;28;20509;-88
2021/09/24 10:06:18;;;;;;;0.35;0.35;;;;;;;;;;5093655;28;20043;-87
2021/09/24 10:08:44;;;;;;;0.10;0.10;;;;;;;;;;5094546;28;20192;-89
2021/09/24 10:11:13;;;;;;;0.10;0.10;;;;;;;;;;5077373;28;20139;-90
2021/09/24 10:14:09;;;;;;;0.10;0.10;;;;;;;;;;5078116;28;20036;-94
2021/09/24 10:16:46;;;;;;;0.10;0.10;;;;;;;;;;5094744;28;20090;-89
2021/09/24 10:19:12;;;;;;;0.10;0.10;;;;;;;;;;5081387;28;20044;-89
2021/09/24 10:21:38;;;;;;;0.10;0.10;;;;;;;;;;5114750;28;20088;-89
2021/09/24 10:24:04;;;;;;;0.10;0.10;;;;;;;;;;5098109;28;20429;-88
2021/09/24 10:26:31;;;;;;;0.10;0.10;;;;;;;;;;5096386;28;20085;-88
2021/09/24 10:28:59;;;;;;;0.10;0.10;;;;;;;;;;5080719;28;20126;-88
2021/09/24 10:31:26;;;;;;;0.15;0.15;;;;;;;;;;5097777;28;20134;-88
2021/09/24 10:33:55;;;;;;;0.10;0.10;;;;;;;;;;5116744;27;20043;-90
2021/09/24 10:36:38;;;;;;;0.10;0.10;;;;;;;;;;5081234;28;20059;-89
2021/09/24 10:39:04;;;;;;;0.10;0.10;;;;;;;;;;5118150;28;20047;-90
2021/09/24 10:41:31;;;;;;;0.10;0.10;;;;;;;;;;5116837;28;20023;-88
2021/09/24 10:43:57;;;;;;;0.10;0.10;;;;;;;;;;5097568;28;20447;-89
2021/09/24 10:46:25;;;;;;;0.10;0.10;;;;;;;;;;5105894;28;20039;-88
2021/09/24 10:49:10;;;;;;;0.10;0.10;;;;;;;;;;5139037;28;20043;-87
2021/09/24 10:51:40;;;;;;;0.10;0.10;;;;;;;;;;5121376;28;20036;-87
2021/09/24 10:54:14;;;;;;;0.10;0.10;;;;;;;;;;5110238;28;20067;-87
2021/09/24 10:56:40;;;;;;;0.10;0.10;;;;;;;;;;5097189;28;20078;-89
2021/09/24 10:59:29;;;;;;;0.52;0.35;;;;;;;;;;5097598;28;20101;-88
2021/09/24 11:01:55;;;;;;;0.10;0.10;;;;;;;;;;5114240;28;20035;-88
2021/09/24 11:04:21;;;;;;;0.10;0.10;;;;;;;;;;5096929;28;20032;-87
2021/09/24 11:06:49;;;;;;;0.10;0.10;;;;;;;;;;5096749;28;20046;-86
2021/09/24 11:09:22;;;;;;;0.10;0.10;;;;;;;;;;5113819;28;20043;-86
2021/09/24 11:12:04;;;;;;;0.10;0.10;;;;;;;;;;5113872;28;20054;-89
2021/09/24 11:14:31;;;;;;;0.10;0.10;;;;;;;;;;5113909;28;20382;-86
2021/09/24 11:16:58;;;;;;;0.10;0.10;;;;;;;;;;5096859;28;20038;-86
2021/09/24 11:19:28;;;;;;;0.10;0.10;;;;;;;;;;5113670;28;20211;-86
2021/09/24 11:22:14;;;;;;;0.10;0.10;;;;;;;;;;5096499;28;20031;-86
2021/09/24 11:24:42;;;;;;;0.10;0.10;;;;;;;;;;5096615;28;20047;-87
2021/09/24 11:27:09;;;;;;;0.10;0.10;;;;;;;;;;5095627;28;20114;-87
2021/09/24 11:29:36;;;;;;;0.10;0.10;;;;;;;;;;5080024;28;20043;-90
2021/09/24 11:32:02;;;;;;;0.10;0.10;;;;;;;;;;5097030;28;20051;-88
2021/09/24 11:34:43;;;;;;;0.10;0.10;;;;;;;;;;5113867;28;20081;-88
2021/09/24 11:37:19;;;;;;;0.13;0.13;;;;;;;;;;5096401;28;20403;-88
2021/09/24 11:39:45;;;;;;;0.10;0.10;;;;;;;;;;5096390;28;20055;-87
2021/09/24 11:42:12;;;;;;;0.10;0.10;;;;;;;;;;5096178;28;20061;-88
2021/09/24 11:44:41;;;;;;;0.10;0.10;;;;;;;;;;5096450;28;20036;-88
2021/09/24 11:47:16;;;;;;;0.20;0.20;;;;;;;;;;5096395;28;20045;-89
2021/09/24 11:49:51;;;;;;;0.20;0.20;;;;;;;;;;5113210;28;20054;-88
2021/09/24 11:52:17;;;;;;;0.10;0.10;;;;;;;;;;5096348;28;20043;-88
2021/09/24 11:54:43;;;;;;;0.10;0.10;;;;;;;;;;5095897;28;20097;-88
2021/09/24 11:57:15;;;;;;;0.10;0.10;;;;;;;;;;5112953;28;20502;-88
2021/09/24 11:59:41;;;;;;;0.20;0.20;;;;;;;;;;5079019;28;20043;-88
2021/09/24 12:02:07;;;;;;;0.10;0.10;;;;;;;;;;5095645;28;20035;-89
2021/09/24 12:04:33;;;;;;;0.10;0.10;;;;;;;;;;5112693;28;20038;-88
2021/09/24 12:06:59;;;;;;;0.10;0.10;;;;;;;;;;5112592;28;20083;-88
2021/09/24 12:09:25;;;;;;;0.10;0.10;;;;;;;;;;5079100;28;20035;-88
2021/09/24 12:11:52;;;;;;;0.10;0.10;;;;;;;;;;5095585;28;20538;-88
2021/09/24 12:14:19;;;;;;;0.10;0.10;;;;;;;;;;5095699;28;20424;-87
2021/09/24 12:16:45;;;;;;;0.10;0.10;;;;;;;;;;5112533;28;20039;-88
2021/09/24 12:19:15;;;;;;;0.32;0.32;;;;;;;;;;5095518;28;20050;-88
2021/09/24 12:21:42;;;;;;;0.10;0.10;;;;;;;;;;5095357;28;20032;-88
2021/09/24 12:24:09;;;;;;;0.10;0.10;;;;;;;;;;5095722;28;20139;-88
2021/09/24 12:26:35;;;;;;;0.10;0.10;;;;;;;;;;5095661;28;20040;-87
2021/09/24 12:29:06;;;;;;;0.10;0.10;;;;;;;;;;5112314;28;20035;-89
2021/09/24 12:31:52;;;;;;;0.10;0.10;;;;;;;;;;5078761;28;20127;-88
2021/09/24 12:34:22;;;;;;;0.10;0.10;;;;;;;;;;5112095;28;20138;-87
2021/09/24 12:36:51;;;;;;;0.10;0.10;;;;;;;;;;5094922;28;20066;-88
2021/09/24 12:39:17;;;;;;;0.10;0.10;;;;;;;;;;5095258;28;20065;-88
2021/09/24 12:41:43;;;;;;;0.10;0.10;;;;;;;;;;5112106;28;20043;-88
2021/09/24 12:44:10;;;;;;;0.10;0.10;;;;;;;;;;5111950;28;20048;-88
2021/09/24 12:46:43;;;;;;;0.25;0.25;;;;;;;;;;5095002;28;20050;-89
2021/09/24 12:49:09;;;;;;;0.10;0.10;;;;;;;;;;5095492;28;20035;-88
2021/09/24 12:51:35;;;;;;;0.17;0.17;;;;;;;;;;5095241;28;20039;-87
2021/09/24 12:54:01;;;;;;;0.17;0.17;;;;;;;;;;5111850;28;20044;-87
2021/09/24 12:56:27;;;;;;;0.20;0.20;;;;;;;;;;5111537;28;20092;-91
2021/09/24 12:58:56;;;;;;;0.20;0.20;;;;;;;;;;5095706;28;20088;-92
2021/09/24 13:01:25;;;;;;;0.20;0.20;;;;;;;;;;5078655;28;20108;-92
2021/09/24 13:03:54;;;;;;;0.10;0.10;;;;;;;;;;5078843;28;20047;-91
2021/09/24 13:06:20;;;;;;;0.20;0.20;;;;;;;;;;5095595;28;20443;-92
2021/09/24 13:08:46;;;;;;;0.10;0.10;;;;;;;;;;5095532;28;20032;-94
2021/09/24 13:11:12;;;;;;;0.10;0.10;;;;;;;;;;5079562;28;20129;-94
2021/09/24 13:13:38;;;;;;;0.10;0.10;;;;;;;;;;5078868;28;20043;-92
2021/09/24 13:16:05;;;;;;;0.20;0.20;;;;;;;;;;5078439;28;20490;-92
2021/09/24 13:18:31;;;;;;;0.10;0.10;;;;;;;;;;5078591;28;20108;-92
2021/09/24 13:20:56;;;;;;;0.10;0.10;;;;;;;;;;5078557;28;20355;-94
2021/09/24 13:23:22;;;;;;;0.35;0.20;;;;;;;;;;5078200;28;20043;-92
2021/09/24 13:25:49;;;;;;;0.55;0.55;;;;;;;;;;5111842;28;20466;-90
2021/09/24 13:28:15;;;;;;;0.20;0.20;;;;;;;;;;5095182;28;20213;-90
2021/09/24 13:30:43;;;;;;;0.10;0.10;;;;;;;;;;5111985;28;20157;-90
2021/09/24 13:33:13;;;;;;;0.10;0.10;;;;;;;;;;5111510;28;20086;-89
2021/09/24 13:35:39;;;;;;;0.40;0.40;;;;;;;;;;5094233;28;20077;-88
2021/09/24 13:38:06;;;;;;;0.20;0.20;;;;;;;;;;5111556;28;20328;-88
2021/09/24 13:40:32;;;;;;;0.28;0.28;;;;;;;;;;5094363;28;20061;-88
2021/09/24 13:42:58;;;;;;;0.20;0.20;;;;;;;;;;5094104;28;20060;-88
2021/09/24 13:45:24;;;;;;;0.10;0.10;;;;;;;;;;5094389;28;20168;-90
2021/09/24 13:47:50;;;;;;;0.20;0.20;;;;;;;;;;5094922;28;20153;-91
2021/09/24 13:50:16;;;;;;;0.20;0.20;;;;;;;;;;5111840;28;20052;-90
2021/09/24 13:52:42;;;;;;;0.17;0.17;;;;;;;;;;5077734;28;20044;-89
2021/09/24 13:55:08;;;;;;;0.20;0.20;;;;;;;;;;5095092;28;20123;-91
2021/09/24 13:57:34;;;;;;;0.15;0.15;;;;;;;;;;5078685;28;20379;-93
2021/09/24 14:00:00;;;;;;;0.55;0.40;;;;;;;;;;5111683;28;20054;-91
2021/09/24 14:02:26;;;;;;;0.20;0.20;;;;;;;;;;5094793;28;20495;-92
2021/09/24 14:04:52;;;;;;;0.10;0.10;;;;;;;;;;5095141;28;20039;-91
2021/09/24 14:07:18;;;;;;;0.82;0.82;;;;;;;;;;5095261;28;20038;-91
2021/09/24 14:09:44;;;;;;;0.10;0.10;;;;;;;;;;5095000;28;20068;-92
2021/09/24 14:12:09;;;;;;;0.20;0.20;;;;;;;;;;5078224;28;20054;-91
2021/09/24 14:14:37;;;;;;;0.10;0.10;;;;;;;;;;5077646;28;20040;-94
2021/09/24 14:17:03;;;;;;;0.10;0.10;;;;;;;;;;5078104;28;20077;-91
2021/09/24 14:19:29;;;;;;;0.20;0.20;;;;;;;;;;5094697;28;20043;-92
2021/09/24 14:21:55;;;;;;;0.40;0.40;;;;;;;;;;5094909;28;20046;-91
2021/09/24 14:24:21;;;;;;;0.10;0.10;;;;;;;;;;5094339;28;20067;-91
2021/09/24 14:26:47;;;;;;;0.10;0.10;;;;;;;;;;5078330;28;20036;-95
2021/09/24 14:29:13;;;;;;;0.10;0.10;;;;;;;;;;5094886;28;20098;-94
2021/09/24 14:31:39;;;;;;;0.10;0.10;;;;;;;;;;5094460;28;20036;-90
2021/09/24 14:34:05;;;;;;;0.20;0.20;;;;;;;;;;5105085;28;20302;-89
2021/09/24 14:36:31;;;;;;;0.13;0.13;;;;;;;;;;5101512;28;20056;-89
2021/09/24 14:38:57;;;;;;;0.20;0.20;;;;;;;;;;5093812;28;20476;-88
2021/09/24 14:41:23;;;;;;;0.20;0.20;;;;;;;;;;5093476;28;20115;-91